Time;durP1;ratioP1;P1;durP2;ratioP2;P2;SDS_P1;SDS_P2;PMS_P1;PMS_P2;Temp;Humidity;BMP_temperature;BMP_pressure;BME280_temperature;BME280_humidity;BME280_pressure;Samples;Min_cycle;Max_cycle;Signal;HPM_P1;HPM_P2
2023/12/28 09:01:03;;;;;;;3.27;0.80;;;10.90;99.90;;;;;;4920304;23;20277;-76
2023/12/28 09:03:30;;;;;;;5.07;0.70;;;10.90;99.90;;;;;;4860366;29;20628;-76
2023/12/28 09:05:57;;;;;;;2.57;0.77;;;11.00;99.90;;;;;;4862671;29;20687;-76
2023/12/28 09:08:24;;;;;;;5.27;0.77;;;10.90;99.90;;;;;;4860998;29;20263;-77
2023/12/28 09:10:51;;;;;;;3.70;0.60;;;10.90;99.90;;;;;;4852573;29;20280;-76
2023/12/28 09:13:19;;;;;;;1.70;1.07;;;10.80;99.90;;;;;;4841740;29;20248;-75
2023/12/28 09:15:47;;;;;;;2.73;0.67;;;10.90;99.90;;;;;;4841476;29;20301;-76
2023/12/28 09:18:15;;;;;;;5.50;0.40;;;10.80;99.90;;;;;;4843897;29;20285;-75
2023/12/28 09:20:42;;;;;;;5.07;0.70;;;10.80;99.90;;;;;;4860032;29;20223;-76
2023/12/28 09:23:10;;;;;;;3.13;0.50;;;10.80;99.90;;;;;;4859962;29;20212;-75
2023/12/28 09:25:38;;;;;;;2.63;0.57;;;10.80;99.90;;;;;;4859160;29;20204;-76
2023/12/28 09:28:06;;;;;;;1.43;0.60;;;10.70;99.90;;;;;;4859208;29;20242;-75
2023/12/28 09:30:33;;;;;;;2.13;0.50;;;10.70;99.90;;;;;;4859755;29;20216;-76
2023/12/28 09:32:59;;;;;;;8.53;1.57;;;10.80;99.90;;;;;;4862832;29;20243;-75
2023/12/28 09:35:28;;;;;;;4.73;0.50;;;10.80;99.90;;;;;;4862985;29;20244;-73
2023/12/28 09:37:56;;;;;;;3.83;0.50;;;10.80;99.90;;;;;;4862416;29;20248;-75
2023/12/28 09:40:22;;;;;;;2.90;0.50;;;10.80;99.90;;;;;;4862917;29;20226;-76
2023/12/28 09:42:58;;;;;;;2.43;0.70;;;10.90;99.90;;;;;;4863245;29;20247;-76
2023/12/28 09:45:25;;;;;;;2.00;0.50;;;11.00;99.90;;;;;;4863236;29;20298;-74
2023/12/28 09:47:52;;;;;;;3.43;0.80;;;11.10;99.90;;;;;;4863042;29;20306;-74
2023/12/28 09:50:20;;;;;;;2.83;0.50;;;11.10;99.90;;;;;;4863177;29;20252;-73
2023/12/28 09:52:48;;;;;;;8.07;1.00;;;11.10;99.90;;;;;;4862984;29;20655;-76
2023/12/28 09:55:15;;;;;;;7.87;1.23;;;11.20;99.90;;;;;;4862967;29;20294;-77
2023/12/28 09:57:43;;;;;;;3.37;0.70;;;11.20;99.90;;;;;;4862975;29;20243;-77
2023/12/28 10:00:11;;;;;;;6.80;0.90;;;11.20;99.90;;;;;;4863167;29;20212;-76
2023/12/28 10:02:40;;;;;;;7.07;0.87;;;11.30;99.90;;;;;;4862786;29;20740;-76
2023/12/28 10:05:08;;;;;;;3.13;0.50;;;11.30;99.90;;;;;;4862899;29;20564;-77
2023/12/28 10:07:42;;;;;;;5.10;0.63;;;11.30;99.90;;;;;;4862824;29;20763;-76
2023/12/28 10:10:11;;;;;;;7.20;0.97;;;11.30;99.90;;;;;;4862885;29;20211;-75
2023/12/28 10:12:38;;;;;;;9.30;0.73;;;11.40;99.90;;;;;;4862904;29;20252;-80
2023/12/28 10:15:06;;;;;;;2.70;0.70;;;11.40;99.90;;;;;;4862111;29;20322;-78
2023/12/28 10:17:35;;;;;;;3.47;0.70;;;11.50;99.90;;;;;;4862536;29;20611;-73
2023/12/28 10:20:06;;;;;;;4.80;0.70;;;11.50;99.90;;;;;;4862334;29;20236;-73
2023/12/28 10:22:33;;;;;;;4.13;0.67;;;11.50;99.90;;;;;;4862576;29;20240;-73
2023/12/28 10:25:00;;;;;;;6.03;0.80;;;11.50;99.90;;;;;;4862203;29;20247;-73
2023/12/28 10:27:29;;;;;;;3.67;0.90;;;11.50;99.90;;;;;;4862180;29;20251;-73
2023/12/28 10:29:56;;;;;;;3.13;0.80;;;11.60;99.90;;;;;;4861604;29;20290;-73
2023/12/28 10:32:24;;;;;;;5.43;0.50;;;11.60;99.90;;;;;;4861407;29;20256;-73
2023/12/28 10:34:53;;;;;;;2.40;0.57;;;11.60;99.90;;;;;;4861311;29;20316;-73
2023/12/28 10:37:21;;;;;;;7.33;1.37;;;11.60;99.90;;;;;;4860591;29;20218;-72
2023/12/28 10:39:50;;;;;;;2.20;0.80;;;11.60;99.90;;;;;;4861558;29;20284;-73
2023/12/28 10:42:27;;;;;;;4.53;0.80;;;11.60;99.90;;;;;;4860173;29;20204;-73
2023/12/28 10:45:01;;;;;;;3.50;0.87;;;11.60;99.90;;;;;;4859592;29;20631;-73
2023/12/28 10:47:32;;;;;;;3.17;0.50;;;11.70;99.90;;;;;;4862065;29;20259;-73
2023/12/28 10:50:02;;;;;;;5.83;0.67;;;11.80;99.90;;;;;;4861450;29;20256;-72
2023/12/28 10:52:31;;;;;;;2.57;0.80;;;11.70;99.90;;;;;;4861487;29;20208;-72
2023/12/28 10:55:09;;;;;;;1.97;0.50;;;11.80;99.90;;;;;;4861027;29;20322;-73
2023/12/28 10:57:41;;;;;;;3.57;0.80;;;11.70;99.90;;;;;;4859332;29;20236;-72
2023/12/28 11:00:14;;;;;;;3.93;0.70;;;11.80;99.90;;;;;;4861299;29;20286;-73
2023/12/28 11:02:46;;;;;;;1.50;0.33;;;11.90;99.90;;;;;;4861238;29;20216;-73
2023/12/28 11:05:13;;;;;;;2.70;0.60;;;11.90;99.90;;;;;;4859340;29;20649;-73
2023/12/28 11:07:41;;;;;;;4.10;0.50;;;11.90;99.90;;;;;;4861692;29;20631;-72
2023/12/28 11:10:10;;;;;;;9.37;0.77;;;12.00;99.90;;;;;;4861744;29;20239;-73
2023/12/28 11:12:39;;;;;;;7.53;0.90;;;12.20;99.90;;;;;;4861007;29;20252;-73
2023/12/28 11:15:08;;;;;;;6.90;0.80;;;12.20;99.90;;;;;;4860724;29;20326;-73
2023/12/28 11:17:38;;;;;;;2.67;1.10;;;12.10;99.90;;;;;;4861046;29;20208;-73
2023/12/28 11:20:06;;;;;;;5.57;0.60;;;12.20;99.90;;;;;;4857679;29;20247;-73
2023/12/28 11:22:34;;;;;;;6.03;0.73;;;12.20;99.90;;;;;;4861068;29;20241;-72
2023/12/28 11:25:01;;;;;;;2.40;0.70;;;12.10;99.90;;;;;;4862241;29;20215;-74
2023/12/28 11:27:34;;;;;;;5.87;1.07;;;12.10;99.90;;;;;;4860832;29;20240;-73
2023/12/28 11:30:03;;;;;;;3.83;0.60;;;12.20;99.90;;;;;;4860924;29;20306;-73
2023/12/28 11:32:32;;;;;;;6.53;1.00;;;12.30;99.90;;;;;;4860388;29;20230;-73
2023/12/28 11:35:01;;;;;;;2.70;0.43;;;12.30;99.90;;;;;;4860890;29;20311;-72
2023/12/28 11:37:30;;;;;;;6.87;0.70;;;12.20;99.90;;;;;;4861487;29;20243;-72
2023/12/28 11:39:59;;;;;;;8.93;1.13;;;12.20;99.90;;;;;;4861387;29;20293;-73
2023/12/28 11:42:26;;;;;;;5.60;1.00;;;12.30;99.90;;;;;;4861114;29;20679;-72
2023/12/28 11:44:55;;;;;;;8.63;0.60;;;12.30;99.90;;;;;;4861083;29;20212;-73
2023/12/28 11:47:24;;;;;;;3.57;0.90;;;12.30;99.90;;;;;;4860819;29;20211;-73
2023/12/28 11:49:52;;;;;;;4.80;0.70;;;12.20;99.90;;;;;;4860722;29;20236;-73
2023/12/28 11:52:28;;;;;;;7.97;1.03;;;12.30;99.90;;;;;;4860428;29;20215;-73
2023/12/28 11:54:55;;;;;;;7.83;0.80;;;12.30;99.90;;;;;;4861008;29;20223;-73
2023/12/28 11:57:22;;;;;;;8.47;1.10;;;12.30;99.90;;;;;;4861013;29;20208;-72
2023/12/28 11:59:53;;;;;;;6.67;1.17;;;12.40;99.90;;;;;;4860883;29;20238;-72
2023/12/28 12:02:21;;;;;;;5.87;0.53;;;12.40;99.90;;;;;;4860196;29;20220;-72
2023/12/28 12:04:48;;;;;;;1.37;0.80;;;12.40;99.90;;;;;;4861093;29;20294;-72
2023/12/28 12:07:15;;;;;;;3.07;0.60;;;12.30;99.90;;;;;;4860890;29;20747;-73
2023/12/28 12:09:44;;;;;;;7.73;1.70;;;12.40;99.90;;;;;;4860820;29;20263;-72
2023/12/28 12:12:11;;;;;;;6.07;0.53;;;12.40;99.90;;;;;;4860432;29;20218;-72
2023/12/28 12:14:38;;;;;;;5.47;1.10;;;12.30;99.90;;;;;;4860490;29;20705;-73
2023/12/28 12:17:05;;;;;;;10.70;0.80;;;12.20;99.90;;;;;;4860338;29;20278;-73
2023/12/28 12:19:32;;;;;;;3.03;0.73;;;12.20;99.90;;;;;;4860648;29;20318;-72
2023/12/28 12:21:59;;;;;;;3.97;0.73;;;12.10;99.90;;;;;;4860501;29;20244;-72
2023/12/28 12:24:26;;;;;;;6.43;1.20;;;12.20;99.90;;;;;;4860284;29;20222;-72
2023/12/28 12:26:54;;;;;;;4.37;1.47;;;12.30;99.90;;;;;;4860567;29;20632;-73
2023/12/28 12:29:21;;;;;;;2.90;0.50;;;12.20;99.90;;;;;;4860496;29;20275;-72
2023/12/28 12:31:49;;;;;;;5.90;0.83;;;12.10;99.90;;;;;;4860875;29;20246;-73
2023/12/28 12:34:17;;;;;;;2.50;0.63;;;12.20;99.90;;;;;;4860294;29;20299;-73
2023/12/28 12:36:44;;;;;;;3.03;0.47;;;12.20;99.90;;;;;;4860585;29;20282;-73
2023/12/28 12:39:12;;;;;;;4.50;0.60;;;12.20;99.90;;;;;;4860580;29;20242;-73
2023/12/28 12:41:39;;;;;;;8.70;0.93;;;12.20;99.90;;;;;;4860339;29;20663;-72
2023/12/28 12:44:10;;;;;;;11.33;3.33;;;12.20;99.90;;;;;;4860153;29;20310;-73
2023/12/28 12:46:37;;;;;;;7.23;0.70;;;12.20;99.90;;;;;;4860279;29;20208;-72
2023/12/28 12:49:04;;;;;;;6.47;1.70;;;12.10;99.90;;;;;;4860156;29;20294;-72
2023/12/28 12:51:31;;;;;;;2.73;0.60;;;12.10;99.90;;;;;;4860150;29;20230;-72
2023/12/28 12:53:58;;;;;;;4.57;0.50;;;12.10;99.90;;;;;;4860296;29;20216;-72
2023/12/28 12:56:25;;;;;;;2.70;0.40;;;12.10;99.90;;;;;;4860150;29;20246;-72
2023/12/28 12:58:52;;;;;;;2.47;0.33;;;12.00;99.90;;;;;;4860382;29;20322;-72
2023/12/28 13:01:21;;;;;;;6.33;1.23;;;12.00;99.90;;;;;;4860101;29;20309;-72
2023/12/28 13:03:48;;;;;;;4.20;0.60;;;11.90;99.90;;;;;;4860150;29;20258;-72
2023/12/28 13:06:15;;;;;;;5.43;0.67;;;12.00;99.90;;;;;;4862139;29;20212;-73
2023/12/28 13:08:42;;;;;;;4.13;0.50;;;12.00;99.90;;;;;;4863950;29;20231;-73
2023/12/28 13:11:09;;;;;;;2.77;0.80;;;11.90;99.90;;;;;;4863924;29;20235;-73
2023/12/28 13:13:36;;;;;;;2.87;1.03;;;11.90;99.90;;;;;;4863981;29;20215;-73
2023/12/28 13:16:03;;;;;;;5.43;1.30;;;11.90;99.90;;;;;;4863879;29;20259;-73
2023/12/28 13:18:34;;;;;;;7.93;0.60;;;11.80;99.90;;;;;;4863529;29;20711;-73
2023/12/28 13:21:01;;;;;;;2.10;0.70;;;11.80;99.90;;;;;;4863717;29;20302;-72
2023/12/28 13:23:29;;;;;;;5.70;0.63;;;11.80;99.90;;;;;;4863288;29;20243;-72
2023/12/28 13:25:55;;;;;;;7.13;0.97;;;11.70;99.90;;;;;;4863463;29;20311;-73
2023/12/28 13:28:22;;;;;;;3.70;0.50;;;11.80;99.90;;;;;;4863340;29;20267;-73
2023/12/28 13:30:50;;;;;;;5.63;0.70;;;11.80;99.90;;;;;;4863688;29;20243;-73
2023/12/28 13:33:17;;;;;;;7.17;0.60;;;11.80;99.90;;;;;;4863025;29;20713;-73
2023/12/28 13:35:45;;;;;;;2.40;0.60;;;11.70;99.90;;;;;;4863493;29;20304;-72
2023/12/28 13:38:12;;;;;;;8.67;0.57;;;11.70;99.90;;;;;;4863224;29;20314;-72
2023/12/28 13:40:39;;;;;;;2.87;0.50;;;11.80;99.90;;;;;;4863482;29;20216;-72
2023/12/28 13:43:06;;;;;;;4.93;0.70;;;11.70;99.90;;;;;;4863267;29;20254;-72
2023/12/28 13:45:33;;;;;;;4.73;0.50;;;11.80;99.90;;;;;;4863313;29;20250;-73
2023/12/28 13:48:00;;;;;;;6.00;1.17;;;11.90;99.90;;;;;;4862980;29;20271;-72
2023/12/28 13:50:28;;;;;;;6.73;0.70;;;11.90;99.90;;;;;;4862816;29;20247;-72
2023/12/28 13:52:56;;;;;;;4.40;0.57;;;11.90;99.90;;;;;;4863490;29;20212;-72
2023/12/28 13:55:23;;;;;;;2.93;0.80;;;11.90;99.90;;;;;;4863289;29;20250;-72
2023/12/28 13:57:50;;;;;;;3.43;0.70;;;11.80;99.90;;;;;;4862989;29;20275;-72
2023/12/28 14:00:17;;;;;;;3.30;0.60;;;11.80;99.90;;;;;;4863160;29;20258;-72
2023/12/28 14:02:45;;;;;;;3.53;1.00;;;11.80;99.90;;;;;;4863015;29;20258;-72
2023/12/28 14:05:12;;;;;;;1.50;0.40;;;11.80;99.90;;;;;;4862767;29;20243;-72
2023/12/28 14:07:38;;;;;;;5.47;0.80;;;11.80;99.90;;;;;;4862995;29;20255;-72
2023/12/28 14:10:08;;;;;;;2.63;0.43;;;11.90;99.90;;;;;;4862796;29;20739;-73
2023/12/28 14:12:35;;;;;;;3.00;0.60;;;11.90;99.90;;;;;;4863017;29;20726;-72
2023/12/28 14:15:02;;;;;;;6.37;0.63;;;12.00;99.90;;;;;;4863097;29;20629;-72
2023/12/28 14:17:30;;;;;;;5.63;0.73;;;11.90;99.90;;;;;;4862600;29;20291;-72
2023/12/28 14:19:57;;;;;;;3.23;0.40;;;11.80;99.90;;;;;;4862824;29;20232;-73
2023/12/28 14:22:24;;;;;;;3.10;0.60;;;11.90;99.90;;;;;;4862530;29;20354;-73
2023/12/28 14:24:53;;;;;;;6.90;1.57;;;11.90;99.90;;;;;;4862762;29;20254;-72
2023/12/28 14:27:22;;;;;;;1.50;0.73;;;11.80;99.90;;;;;;4862673;29;20248;-72
2023/12/28 14:29:50;;;;;;;4.43;0.80;;;11.70;99.90;;;;;;4862353;29;20335;-72
2023/12/28 14:32:18;;;;;;;2.63;0.60;;;11.60;99.90;;;;;;4862577;29;20216;-73
2023/12/28 14:34:45;;;;;;;3.87;0.93;;;11.70;99.90;;;;;;4862716;29;20268;-72
2023/12/28 14:37:12;;;;;;;4.20;0.90;;;11.70;99.90;;;;;;4862647;29;20297;-72
2023/12/28 14:39:39;;;;;;;2.57;0.90;;;11.70;99.90;;;;;;4862589;29;20267;-72
2023/12/28 14:42:07;;;;;;;3.10;0.50;;;11.70;99.90;;;;;;4862311;29;20244;-72
2023/12/28 14:44:35;;;;;;;2.30;0.60;;;11.70;99.90;;;;;;4862328;29;20219;-72
2023/12/28 14:47:02;;;;;;;3.00;0.60;;;11.70;99.90;;;;;;4862379;29;20311;-73
2023/12/28 14:49:29;;;;;;;5.07;0.67;;;11.70;99.90;;;;;;4862515;29;20263;-73
2023/12/28 14:51:56;;;;;;;2.00;0.53;;;11.70;99.90;;;;;;4862315;29;20243;-72
2023/12/28 14:54:23;;;;;;;4.40;0.73;;;11.60;99.90;;;;;;4861979;29;20631;-71
